VIR weather

Virginia Airport
Durban, Kwazulu-Natal, South Africa

Public forecast

Using degrees Celsius for public forecast. Weather courtesy of forecast.io.

METAR (pilot weather report)

Closest report is King Shaka International Airport, 9.9 nm (18.3 km) NNE. Retrieved 2019/05/21 16:00 UTC (30 minutes ago):

FALE 211600Z 20005KT 9999 BKN030 18/09 Q1022 NOSIG

TAF (pilot weather forecast)

Closest forecast is King Shaka International Airport, 9.9 nm (18.3 km) NNE. Retrieved 2019/05/21 12:00 UTC (4 hours ago):

TAF FALE 211000Z 2112/2218 19015KT 9999 BKN025 TX24/2212Z TN16/2204Z BECMG 2121/2123 27005KT BECMG 2204/2206 33005KT FM220800 03015KT CAVOK